createdAt,value
2019-01-11T00:01:49.823Z,72.95
2019-01-11T00:04:19.335Z,73.02
2019-01-11T00:06:48.824Z,73.07
2019-01-11T00:09:19.122Z,77.11
2019-01-11T00:11:48.706Z,73.54
2019-01-11T00:14:18.232Z,71.79
2019-01-11T00:16:47.726Z,72.10
2019-01-11T00:19:17.231Z,72.45
2019-01-11T00:21:46.739Z,72.69
2019-01-11T00:24:16.799Z,73.04
2019-01-11T00:26:46.302Z,73.30
2019-01-11T00:29:15.831Z,73.43
2019-01-11T00:31:45.338Z,73.22
2019-01-11T00:34:14.851Z,73.22
2019-01-11T00:36:44.355Z,72.96
2019-01-11T00:39:13.864Z,73.43
2019-01-11T00:41:43.347Z,73.64
2019-01-11T00:44:13.045Z,73.67
2019-01-11T00:46:42.572Z,72.96
2019-01-11T00:49:13.630Z,73.89
2019-01-11T00:51:43.366Z,73.70
2019-01-11T00:54:12.870Z,73.81
2019-01-11T00:56:42.375Z,73.52
2019-01-11T00:59:11.868Z,73.88
2019-01-11T01:01:41.462Z,73.89
2019-01-11T01:04:10.986Z,74.24
2019-01-11T01:06:40.494Z,74.44
2019-01-11T01:09:11.056Z,74.17
2019-01-11T01:11:40.601Z,74.36
2019-01-11T01:14:10.197Z,74.40
2019-01-11T01:16:39.706Z,74.37
2019-01-11T01:19:10.178Z,74.62
2019-01-11T01:21:39.752Z,75.10
2019-01-11T01:24:09.724Z,75.06
2019-01-11T01:26:39.212Z,75.31
2019-01-11T01:29:08.728Z,75.06
2019-01-11T01:31:38.225Z,75.11
2019-01-11T01:34:07.741Z,74.89
2019-01-11T01:36:37.254Z,75.03
2019-01-11T01:39:08.482Z,75.04
2019-01-11T01:41:38.059Z,74.90
2019-01-11T01:44:07.563Z,74.67
2019-01-11T01:46:37.058Z,74.70
2019-01-11T01:49:06.631Z,74.51
2019-01-11T01:51:36.119Z,74.62
2019-01-11T01:54:05.809Z,74.45
2019-01-11T01:56:35.298Z,74.51
2019-01-11T01:59:04.961Z,74.23
2019-01-11T02:01:34.440Z,74.75
2019-01-11T02:04:04.056Z,74.54
2019-01-11T02:06:33.634Z,74.45
2019-01-11T02:09:04.952Z,74.52
2019-01-11T02:11:34.466Z,74.75
2019-01-11T02:14:04.037Z,74.25
2019-01-11T02:16:33.552Z,74.54
2019-01-11T02:19:03.092Z,74.84
2019-01-11T02:21:32.579Z,74.61
2019-01-11T02:24:02.076Z,74.34
2019-01-11T02:26:31.558Z,73.88
2019-01-11T02:29:01.037Z,74.09
2019-01-11T02:31:30.535Z,74.66
2019-01-11T02:34:00.024Z,74.67
2019-01-11T02:36:29.601Z,74.65
2019-01-11T02:38:59.079Z,74.81
2019-01-11T02:41:28.650Z,74.94
2019-01-11T02:43:58.131Z,74.67
2019-01-11T02:46:27.644Z,74.63
2019-01-11T02:48:57.134Z,74.69
2019-01-11T02:51:26.638Z,74.83
2019-01-11T02:53:56.132Z,75.19
2019-01-11T02:56:25.665Z,74.99
2019-01-11T02:58:55.139Z,75.18
2019-01-11T03:01:24.631Z,74.99
2019-01-11T03:03:54.121Z,74.97
2019-01-11T03:06:23.643Z,74.80
2019-01-11T03:08:53.161Z,74.91
2019-01-11T03:11:23.642Z,75.19
2019-01-11T03:13:53.173Z,75.00
2019-01-11T03:16:22.645Z,75.30
2019-01-11T03:18:52.181Z,75.70
2019-01-11T03:21:21.674Z,75.36
2019-01-11T03:23:51.169Z,74.81
2019-01-11T03:26:20.679Z,75.52
2019-01-11T03:28:50.186Z,75.34
2019-01-11T03:31:38.295Z,75.79
2019-01-11T03:34:07.778Z,75.48
2019-01-11T03:36:37.295Z,75.68
2019-01-11T03:39:07.930Z,75.42
2019-01-11T03:41:50.306Z,75.46
2019-01-11T03:44:20.026Z,75.51
2019-01-11T03:46:49.526Z,76.06
2019-01-11T03:49:19.026Z,75.74
2019-01-11T03:51:48.541Z,75.62
2019-01-11T03:54:18.409Z,75.57
2019-01-11T03:56:48.015Z,75.82
2019-01-11T03:59:17.488Z,76.04
2019-01-11T04:01:46.993Z,76.00
2019-01-11T04:04:16.495Z,75.39
2019-01-11T04:06:45.995Z,75.79
2019-01-11T04:09:15.470Z,76.12
2019-01-11T04:11:45.061Z,75.97
2019-01-11T04:14:14.577Z,75.90
2019-01-11T04:16:44.102Z,76.15
2019-01-11T04:19:15.034Z,76.31
2019-01-11T04:22:03.390Z,76.48
2019-01-11T04:24:39.326Z,76.74
2019-01-11T04:27:08.827Z,76.68
2019-01-11T04:29:38.311Z,76.50
2019-01-11T04:32:07.813Z,76.67
2019-01-11T04:34:37.303Z,77.06
2019-01-11T04:37:06.791Z,76.60
2019-01-11T04:39:36.292Z,76.29
2019-01-11T04:42:05.811Z,75.99
2019-01-11T04:44:35.313Z,75.90
2019-01-11T04:47:04.968Z,75.65
2019-01-11T04:49:34.479Z,75.88
2019-01-11T04:52:04.054Z,76.03
2019-01-11T04:54:33.558Z,75.74
2019-01-11T04:57:03.061Z,75.42
2019-01-11T04:59:32.553Z,75.80
2019-01-11T05:02:02.050Z,76.09
2019-01-11T05:04:31.546Z,75.93
2019-01-11T05:07:01.050Z,75.58
2019-01-11T05:09:30.525Z,75.82
2019-01-11T05:12:00.138Z,76.20
2019-01-11T05:14:29.629Z,76.73
2019-01-11T05:16:59.119Z,76.59
2019-01-11T05:19:28.616Z,76.43
2019-01-11T05:21:58.099Z,76.56
2019-01-11T05:24:27.595Z,76.17
2019-01-11T05:26:57.094Z,76.30
2019-01-11T05:29:27.679Z,76.18
2019-01-11T05:31:57.257Z,75.86
2019-01-11T05:34:26.745Z,75.92
2019-01-11T05:36:56.231Z,76.39
2019-01-11T05:39:25.729Z,76.29
2019-01-11T05:41:55.209Z,76.10
2019-01-11T05:44:24.714Z,76.05
2019-01-11T05:46:54.208Z,76.34
2019-01-11T05:49:23.705Z,75.64
2019-01-11T05:51:53.206Z,75.84
2019-01-11T05:54:23.058Z,75.88
2019-01-11T05:56:52.548Z,75.99
2019-01-11T05:59:22.038Z,75.91
2019-01-11T06:01:51.515Z,76.29
2019-01-11T06:04:37.371Z,75.99
2019-01-11T06:07:41.306Z,76.12
2019-01-11T06:10:13.221Z,76.04
2019-01-11T06:12:42.697Z,76.61
2019-01-11T06:15:12.368Z,76.58
2019-01-11T06:17:41.856Z,77.04
2019-01-11T06:20:14.293Z,76.75
2019-01-11T06:22:43.849Z,76.81
2019-01-11T06:25:13.421Z,77.09
2019-01-11T06:27:42.893Z,77.30
2019-01-11T06:30:13.700Z,77.29
2019-01-11T06:32:43.252Z,77.55
2019-01-11T06:35:12.773Z,77.79
2019-01-11T06:37:42.291Z,77.65
2019-01-11T06:40:11.905Z,77.38
2019-01-11T06:42:41.381Z,77.44
2019-01-11T06:45:10.891Z,76.96
2019-01-11T06:47:40.665Z,76.27
2019-01-11T06:50:12.539Z,76.63
2019-01-11T06:52:42.017Z,76.39
2019-01-11T06:55:11.755Z,75.77
2019-01-11T06:57:41.243Z,76.45
2019-01-11T07:00:13.064Z,76.49
2019-01-11T07:02:42.547Z,76.05
2019-01-11T07:05:12.113Z,75.93
2019-01-11T07:07:41.605Z,75.61
2019-01-11T07:10:14.317Z,75.88
2019-01-11T07:12:43.812Z,75.39
2019-01-11T07:15:13.572Z,75.26
2019-01-11T07:17:43.134Z,75.22
2019-01-11T07:20:13.051Z,75.00
2019-01-11T07:22:42.617Z,75.31
2019-01-11T07:25:12.474Z,76.03
2019-01-11T07:27:46.001Z,76.04
2019-01-11T07:30:15.659Z,75.75
2019-01-11T07:32:45.413Z,75.22
2019-01-11T07:35:14.990Z,75.05
2019-01-11T07:37:44.550Z,74.97
2019-01-11T07:40:14.041Z,74.92
2019-01-11T07:42:43.530Z,75.14
2019-01-11T07:45:13.112Z,74.92
2019-01-11T07:47:43.573Z,75.23
2019-01-11T07:50:13.169Z,75.76
2019-01-11T07:52:42.647Z,76.05
2019-01-11T07:55:12.226Z,76.29
2019-01-11T07:57:41.717Z,76.50
2019-01-11T08:00:11.869Z,77.04
2019-01-11T08:02:41.710Z,77.24
2019-01-11T08:05:11.276Z,77.28
2019-01-11T08:07:40.850Z,76.95
2019-01-11T08:10:10.429Z,77.20
2019-01-11T08:12:39.952Z,77.21
2019-01-11T08:15:09.997Z,77.11
2019-01-11T08:17:39.518Z,77.71
2019-01-11T08:20:09.295Z,77.49
2019-01-11T08:22:42.255Z,77.38
2019-01-11T08:25:12.569Z,77.52
2019-01-11T08:27:42.181Z,77.44
2019-01-11T08:30:13.426Z,77.30
2019-01-11T08:32:42.998Z,77.50
2019-01-11T08:35:12.840Z,77.14
2019-01-11T08:37:42.412Z,77.53
2019-01-11T08:40:12.021Z,77.72
2019-01-11T08:42:41.527Z,77.72
2019-01-11T08:45:11.717Z,77.77
2019-01-11T08:47:41.493Z,77.72
2019-01-11T08:50:14.746Z,77.70
2019-01-11T08:52:44.315Z,77.93
2019-01-11T08:55:13.952Z,77.59
2019-01-11T08:57:43.466Z,78.46
2019-01-11T09:00:13.772Z,77.61
2019-01-11T09:02:43.316Z,77.51
2019-01-11T09:05:12.966Z,77.86
2019-01-11T09:07:43.010Z,77.54
2019-01-11T09:10:13.728Z,77.59
2019-01-11T09:12:44.081Z,77.73
2019-01-11T09:15:13.647Z,77.76
2019-01-11T09:17:57.937Z,77.92
2019-01-11T09:20:27.553Z,77.71
2019-01-11T09:22:57.047Z,77.91
2019-01-11T09:25:26.551Z,77.83
2019-01-11T09:27:56.056Z,77.22
2019-01-11T09:30:25.556Z,77.39
2019-01-11T09:32:55.056Z,77.53
2019-01-11T09:35:25.421Z,77.27
2019-01-11T09:37:54.959Z,77.67
2019-01-11T09:40:24.586Z,77.68
2019-01-11T09:42:54.092Z,77.58
2019-01-11T09:45:23.659Z,77.76
2019-01-11T09:47:53.231Z,77.85
2019-01-11T09:50:22.743Z,77.99
2019-01-11T09:52:52.344Z,77.73
2019-01-11T09:55:21.856Z,77.38
2019-01-11T09:57:52.151Z,76.86
2019-01-11T10:00:23.725Z,77.03
2019-01-11T10:03:01.156Z,76.65
2019-01-11T10:05:30.667Z,76.39
2019-01-11T10:08:02.022Z,76.72
2019-01-11T10:10:31.523Z,76.76
2019-01-11T10:13:01.053Z,77.04
2019-01-11T10:15:30.716Z,77.50
2019-01-11T10:18:00.609Z,78.03
2019-01-11T10:20:30.214Z,78.21
2019-01-11T10:22:59.776Z,78.57
2019-01-11T10:25:29.277Z,78.79
2019-01-11T10:27:58.775Z,78.56
2019-01-11T10:30:28.263Z,78.39
2019-01-11T10:32:57.779Z,78.42
2019-01-11T10:35:27.279Z,78.19
2019-01-11T10:37:56.788Z,77.86
2019-01-11T10:40:26.295Z,77.77
2019-01-11T10:42:55.865Z,77.86
2019-01-11T10:45:25.376Z,78.82
2019-01-11T10:47:54.959Z,79.45
2019-01-11T10:50:24.620Z,79.10
2019-01-11T10:52:54.197Z,79.08
2019-01-11T10:55:24.232Z,79.57
2019-01-11T10:57:53.761Z,80.05
2019-01-11T11:00:25.241Z,80.03
2019-01-11T11:02:55.568Z,80.19
2019-01-11T11:05:25.171Z,80.87
2019-01-11T11:07:54.743Z,81.64
2019-01-11T11:10:24.676Z,82.03
2019-01-11T11:12:54.179Z,81.27
2019-01-11T11:15:24.116Z,81.46
2019-01-11T11:17:53.665Z,82.38
2019-01-11T11:20:23.191Z,82.04
2019-01-11T11:22:53.616Z,81.55
2019-01-11T11:25:24.104Z,81.86
2019-01-11T11:27:53.611Z,81.70
2019-01-11T11:30:23.258Z,81.74
2019-01-11T11:32:58.058Z,81.56
2019-01-11T11:35:31.209Z,81.74
2019-01-11T11:38:00.730Z,82.15
2019-01-11T11:40:31.360Z,82.33
2019-01-11T11:43:00.876Z,82.58
2019-01-11T11:45:30.791Z,82.64
2019-01-11T11:48:00.296Z,81.51
2019-01-11T11:50:29.800Z,81.94
2019-01-11T11:52:59.568Z,81.33
2019-01-11T11:55:29.067Z,81.59
2019-01-11T11:57:58.549Z,82.16
2019-01-11T12:00:28.412Z,81.21
2019-01-11T12:02:57.932Z,82.02
2019-01-11T12:05:28.474Z,81.33
2019-01-11T12:07:58.046Z,81.00
2019-01-11T12:10:27.624Z,81.45
2019-01-11T12:12:57.123Z,82.03
2019-01-11T12:15:26.638Z,82.33
2019-01-11T12:17:56.125Z,82.67
2019-01-11T12:20:33.555Z,81.94
2019-01-11T12:23:03.161Z,81.94
2019-01-11T12:25:32.652Z,81.10
2019-01-11T12:28:02.144Z,80.55
2019-01-11T12:30:31.640Z,81.49
2019-01-11T12:33:01.124Z,81.53
2019-01-11T12:35:30.626Z,82.10
2019-01-11T12:38:00.239Z,81.50
2019-01-11T12:40:29.764Z,81.77
2019-01-11T12:42:59.239Z,81.11
2019-01-11T12:45:28.839Z,81.25
2019-01-11T12:47:58.315Z,80.57
2019-01-11T12:50:28.203Z,80.39
2019-01-11T12:52:57.686Z,80.07
2019-01-11T12:55:27.353Z,80.11
2019-01-11T12:57:56.873Z,79.99
2019-01-11T13:00:26.800Z,80.38
2019-01-11T13:02:56.305Z,80.24
2019-01-11T13:05:26.778Z,80.42
2019-01-11T13:07:56.272Z,80.14
2019-01-11T13:10:25.860Z,80.14
2019-01-11T13:12:55.379Z,80.25
2019-01-11T13:15:25.311Z,80.25
2019-01-11T13:17:54.913Z,79.75
2019-01-11T13:20:24.570Z,79.57
2019-01-11T13:22:54.158Z,79.85
2019-01-11T13:25:23.685Z,79.25
2019-01-11T13:27:53.224Z,79.72
2019-01-11T13:30:22.875Z,79.36
2019-01-11T13:32:52.476Z,79.55
2019-01-11T13:35:21.969Z,79.22
2019-01-11T13:37:51.469Z,79.36
2019-01-11T13:40:25.117Z,79.91
2019-01-11T13:42:54.970Z,79.38
2019-01-11T13:45:24.613Z,79.83
2019-01-11T13:47:54.178Z,79.37
2019-01-11T13:50:37.722Z,79.11
2019-01-11T13:53:09.265Z,80.01
2019-01-11T13:55:38.774Z,80.24
2019-01-11T13:58:08.373Z,80.63
2019-01-11T14:00:37.889Z,80.92
2019-01-11T14:03:07.771Z,80.81
2019-01-11T14:05:37.280Z,80.13
2019-01-11T14:08:06.796Z,79.56
2019-01-11T14:10:36.405Z,79.18
2019-01-11T14:13:05.933Z,79.17
2019-01-11T14:15:36.933Z,79.43
2019-01-11T14:18:07.631Z,78.62
2019-01-11T14:20:38.312Z,78.49
2019-01-11T14:23:08.009Z,78.44
2019-01-11T14:25:37.514Z,78.46
2019-01-11T14:28:07.094Z,78.35
2019-01-11T14:30:36.689Z,78.39
2019-01-11T14:33:06.470Z,78.62
2019-01-11T14:35:37.102Z,78.32
2019-01-11T14:38:06.819Z,78.35
2019-01-11T14:40:36.374Z,78.24
2019-01-11T14:43:05.967Z,78.81
2019-01-11T14:45:35.490Z,79.76
2019-01-11T14:48:05.568Z,79.08
2019-01-11T14:50:35.201Z,79.20
2019-01-11T14:53:04.839Z,79.36
2019-01-11T14:55:34.338Z,79.69
2019-01-11T14:58:04.314Z,79.29
2019-01-11T15:00:33.920Z,77.89
2019-01-11T15:03:03.453Z,76.59
2019-01-11T15:05:33.162Z,78.15
2019-01-11T15:08:02.693Z,78.05
2019-01-11T15:10:32.211Z,79.13
2019-01-11T15:13:01.785Z,79.17
2019-01-11T15:15:31.277Z,79.04
2019-01-11T15:18:00.858Z,78.43
2019-01-11T15:20:30.361Z,78.35
2019-01-11T15:22:59.884Z,78.68
2019-01-11T15:25:29.440Z,78.98
2019-01-11T15:27:58.940Z,79.76
2019-01-11T15:30:28.463Z,79.71
2019-01-11T15:32:57.966Z,79.21
2019-01-11T15:35:27.574Z,79.33
2019-01-11T15:37:58.085Z,80.12
2019-01-11T15:40:28.997Z,80.47
2019-01-11T15:42:58.473Z,80.42
2019-01-11T15:45:28.039Z,79.88
2019-01-11T15:47:59.597Z,80.02
2019-01-11T15:50:53.233Z,79.58
2019-01-11T15:53:22.753Z,78.93
2019-01-11T15:55:55.211Z,79.41
2019-01-11T15:58:24.706Z,79.45
2019-01-11T16:00:54.545Z,79.63
2019-01-11T16:03:24.152Z,78.99
2019-01-11T16:06:19.145Z,78.89
2019-01-11T16:09:21.250Z,79.10
2019-01-11T16:11:58.426Z,78.94
2019-01-11T16:14:46.949Z,78.93
2019-01-11T16:17:17.596Z,78.42
2019-01-11T16:19:48.142Z,78.40
2019-01-11T16:22:17.614Z,78.51
2019-01-11T16:24:47.108Z,78.26
2019-01-11T16:27:16.729Z,77.77
2019-01-11T16:29:46.243Z,77.23
2019-01-11T16:32:15.746Z,77.02
2019-01-11T16:34:45.251Z,77.50
2019-01-11T16:37:14.778Z,77.28
2019-01-11T16:39:44.431Z,78.04
2019-01-11T16:42:13.929Z,77.52
2019-01-11T16:44:43.433Z,77.90
2019-01-11T16:47:13.902Z,77.91
2019-01-11T16:49:43.402Z,77.54
2019-01-11T16:52:15.449Z,77.23
2019-01-11T16:54:44.218Z,77.63
2019-01-11T16:57:13.703Z,78.37
2019-01-11T16:59:43.285Z,78.41
2019-01-11T17:02:12.785Z,78.35
2019-01-11T17:04:42.303Z,78.04
2019-01-11T17:07:11.814Z,77.77
2019-01-11T17:09:41.312Z,78.67
2019-01-11T17:12:10.784Z,78.46
2019-01-11T17:14:40.533Z,78.79
2019-01-11T17:17:10.089Z,78.53
2019-01-11T17:19:39.635Z,78.42
2019-01-11T17:22:09.142Z,78.27
2019-01-11T17:24:39.658Z,77.96
2019-01-11T17:27:09.174Z,78.19
2019-01-11T17:29:38.664Z,78.28
2019-01-11T17:32:08.180Z,78.13
2019-01-11T17:34:37.642Z,78.47
2019-01-11T17:37:07.249Z,77.93
2019-01-11T17:39:36.725Z,77.81
2019-01-11T17:42:06.281Z,77.51
2019-01-11T17:44:35.760Z,77.25
2019-01-11T17:47:07.265Z,77.24
2019-01-11T17:49:36.741Z,77.00
2019-01-11T17:52:06.222Z,76.88
2019-01-11T17:54:35.719Z,76.96
2019-01-11T17:57:05.219Z,76.72
2019-01-11T17:59:34.693Z,76.21
2019-01-11T18:02:04.284Z,76.08
2019-01-11T18:04:33.785Z,75.92
2019-01-11T18:07:03.330Z,75.70
2019-01-11T18:09:32.814Z,75.31
2019-01-11T18:12:02.318Z,76.00
2019-01-11T18:14:31.945Z,76.44
2019-01-11T18:17:01.540Z,76.89
2019-01-11T18:19:31.111Z,76.42
2019-01-11T18:22:01.658Z,75.73
2019-01-11T18:24:31.163Z,75.51
2019-01-11T18:27:00.677Z,76.10
2019-01-11T18:29:30.270Z,76.23
2019-01-11T18:31:59.755Z,76.22
2019-01-11T18:34:29.227Z,76.21
2019-01-11T18:36:58.799Z,75.34
2019-01-11T18:39:28.391Z,75.68
2019-01-11T18:41:57.948Z,75.98
2019-01-11T18:44:27.430Z,75.57
2019-01-11T18:46:56.906Z,76.14
2019-01-11T18:49:27.428Z,75.59
2019-01-11T18:51:56.905Z,75.68
2019-01-11T18:54:26.409Z,74.99
2019-01-11T18:56:56.150Z,74.74
2019-01-11T18:59:25.681Z,74.60
2019-01-11T19:01:55.159Z,75.29
2019-01-11T19:04:24.666Z,75.04
2019-01-11T19:06:55.019Z,75.16
2019-01-11T19:09:24.625Z,75.64
2019-01-11T19:11:54.099Z,75.52
2019-01-11T19:14:23.623Z,75.48
2019-01-11T19:16:53.141Z,75.13
2019-01-11T19:19:22.700Z,75.03
2019-01-11T19:21:52.233Z,74.80
2019-01-11T19:24:21.761Z,74.35
2019-01-11T19:26:51.261Z,73.96
2019-01-11T19:29:20.791Z,74.25
2019-01-11T19:31:50.308Z,74.14
2019-01-11T19:34:19.866Z,73.99
2019-01-11T19:36:49.374Z,75.23
2019-01-11T19:39:18.890Z,74.96
2019-01-11T19:41:48.391Z,75.43
2019-01-11T19:44:17.985Z,75.09
2019-01-11T19:46:47.491Z,74.73
2019-01-11T19:49:17.016Z,74.34
2019-01-11T19:51:46.618Z,74.58
2019-01-11T19:54:16.197Z,74.99
2019-01-11T19:56:45.683Z,74.78
2019-01-11T19:59:15.325Z,74.66
2019-01-11T20:01:44.824Z,74.72
2019-01-11T20:04:15.182Z,74.58
2019-01-11T20:06:45.955Z,74.36
2019-01-11T20:09:15.607Z,74.07
2019-01-11T20:11:45.066Z,74.03
2019-01-11T20:14:15.523Z,75.14
2019-01-11T20:16:46.044Z,74.87
2019-01-11T20:19:15.595Z,74.51
2019-01-11T20:21:45.066Z,73.93
2019-01-11T20:24:14.566Z,74.11
2019-01-11T20:26:45.164Z,74.44
2019-01-11T20:29:14.659Z,74.47
2019-01-11T20:31:44.137Z,74.81
2019-01-11T20:34:13.645Z,75.08
2019-01-11T20:36:57.237Z,74.22
2019-01-11T20:39:26.719Z,74.31
2019-01-11T20:41:56.328Z,75.05
2019-01-11T20:44:25.847Z,74.40
2019-01-11T20:46:55.354Z,74.65
2019-01-11T20:49:24.845Z,74.10
2019-01-11T20:51:54.410Z,74.03
2019-01-11T20:54:24.296Z,74.16
2019-01-11T20:56:53.826Z,74.08
2019-01-11T20:59:23.334Z,73.87
2019-01-11T21:01:52.998Z,74.50
2019-01-11T21:04:22.608Z,73.98
2019-01-11T21:06:52.138Z,74.66
2019-01-11T21:09:21.653Z,74.03
2019-01-11T21:11:51.157Z,74.07
2019-01-11T21:14:20.673Z,73.73
2019-01-11T21:16:50.239Z,73.66
2019-01-11T21:19:19.732Z,74.09
2019-01-11T21:21:49.365Z,73.84
2019-01-11T21:24:18.873Z,73.53
2019-01-11T21:26:48.404Z,73.66
2019-01-11T21:29:17.975Z,73.18
2019-01-11T21:31:47.565Z,73.71
2019-01-11T21:34:17.085Z,73.88
2019-01-11T21:36:46.616Z,73.58
2019-01-11T21:39:16.113Z,73.56
2019-01-11T21:41:45.595Z,73.71
2019-01-11T21:44:15.132Z,73.39
2019-01-11T21:46:44.919Z,73.71
2019-01-11T21:49:14.447Z,74.27
2019-01-11T21:51:43.979Z,73.71
2019-01-11T21:54:13.554Z,73.48
2019-01-11T21:56:43.059Z,72.88
2019-01-11T21:59:12.635Z,73.35
2019-01-11T22:01:42.143Z,72.57
2019-01-11T22:04:11.626Z,72.10
2019-01-11T22:06:41.211Z,72.04
2019-01-11T22:09:10.728Z,72.32
2019-01-11T22:11:40.228Z,72.12
2019-01-11T22:14:09.783Z,72.38
2019-01-11T22:16:39.318Z,72.28
2019-01-11T22:19:08.909Z,72.49
2019-01-11T22:21:38.404Z,71.94
2019-01-11T22:24:08.026Z,72.42
2019-01-11T22:26:37.516Z,72.22
2019-01-11T22:29:08.084Z,72.09
2019-01-11T22:31:37.788Z,71.63
2019-01-11T22:34:07.268Z,71.51
2019-01-11T22:36:36.779Z,71.31
2019-01-11T22:39:08.265Z,70.99
2019-01-11T22:41:37.914Z,70.47
2019-01-11T22:44:07.448Z,70.57
2019-01-11T22:46:37.437Z,70.59
2019-01-11T22:49:06.955Z,70.57
2019-01-11T22:51:36.484Z,71.26
2019-01-11T22:54:10.335Z,70.56
2019-01-11T22:56:37.336Z,70.43
2019-01-11T22:59:06.935Z,70.32
2019-01-11T23:01:53.500Z,70.07
2019-01-11T23:04:23.150Z,69.92
2019-01-11T23:07:02.477Z,70.11
2019-01-11T23:09:38.134Z,69.95
2019-01-11T23:12:28.281Z,70.25
2019-01-11T23:14:57.835Z,70.82
2019-01-11T23:17:56.422Z,70.72
2019-01-11T23:20:26.015Z,70.34
2019-01-11T23:22:55.543Z,69.78
2019-01-11T23:25:25.022Z,69.48
2019-01-11T23:27:54.523Z,69.10
2019-01-11T23:30:24.071Z,69.40
2019-01-11T23:32:53.545Z,69.96
2019-01-11T23:35:23.016Z,69.84
2019-01-11T23:37:52.513Z,69.51
2019-01-11T23:40:22.000Z,69.99
2019-01-11T23:42:51.504Z,70.06
2019-01-11T23:45:20.984Z,70.86
2019-01-11T23:47:50.466Z,71.10
2019-01-11T23:50:19.949Z,70.87
2019-01-11T23:52:49.442Z,71.58
2019-01-11T23:55:18.917Z,71.84
2019-01-11T23:57:48.427Z,72.38
